Time;durP1;ratioP1;P1;durP2;ratioP2;P2;SDS_P1;SDS_P2;PMS_P1;PMS_P2;Temp;Humidity;BMP_temperature;BMP_pressure;BME280_temperature;BME280_humidity;BME280_pressure;Samples;Min_cycle;Max_cycle;Signal;HPM_P1;HPM_P2
2022/09/07 00:00:34;;;;;;;;;;;;;;;;;;5038658;28;19916;-82
2022/09/07 00:02:59;;;;;;;;;;;;;;;;;;5044623;28;19920;-83
2022/09/07 00:05:25;;;;;;;;;;;;;;;;;;5037050;28;19913;-82
2022/09/07 00:07:50;;;;;;;;;;;;;;;;;;5040691;28;19917;-82
2022/09/07 00:10:15;;;;;;;;;;;;;;;;;;5037210;28;19909;-83
2022/09/07 00:12:40;;;;;;;;;;;;;;;;;;5042069;28;19951;-82
2022/09/07 00:15:08;;;;;;;;;;;;;;;;;;5046582;28;19944;-82
2022/09/07 00:17:33;;;;;;;;;;;;;;;;;;5039205;28;19909;-82
2022/09/07 00:19:58;;;;;;;;;;;;;;;;;;5043107;28;19931;-82
2022/09/07 00:22:23;;;;;;;;;;;;;;;;;;5040187;28;19909;-82
2022/09/07 00:24:48;;;;;;;;;;;;;;;;;;5034485;28;19917;-82
2022/09/07 00:27:14;;;;;;;;;;;;;;;;;;5039863;28;19920;-83
2022/09/07 00:29:39;;;;;;;;;;;;;;;;;;5035069;28;20007;-81
2022/09/07 00:32:04;;;;;;;;;;;;;;;;;;5037287;28;19916;-82
2022/09/07 00:34:29;;;;;;;;;;;;;;;;;;5045898;28;19909;-82
2022/09/07 00:36:54;;;;;;;;;;;;;;;;;;5045713;28;19972;-82
2022/09/07 00:39:19;;;;;;;;;;;;;;;;;;5052487;28;20012;-82
2022/09/07 00:41:44;;;;;;;;;;;;;;;;;;5047713;28;19909;-82
2022/09/07 00:44:10;;;;;;;;;;;;;;;;;;5040954;28;19913;-82
2022/09/07 00:46:35;;;;;;;;;;;;;;;;;;5043359;28;19917;-81
2022/09/07 00:49:00;;;;;;;;;;;;;;;;;;5038211;28;20319;-81
2022/09/07 00:51:26;;;;;;;;;;;;;;;;;;5052124;28;19973;-82
2022/09/07 00:53:53;;;;;;;;;;;;;;;;;;5046357;28;19905;-83
2022/09/07 00:56:18;;;;;;;;;;;;;;;;;;5052338;28;20364;-83
2022/09/07 00:58:43;;;;;;;;;;;;;;;;;;5043482;28;19956;-82
2022/09/07 01:01:09;;;;;;;;;;;;;;;;;;5041129;28;19909;-83
2022/09/07 01:03:34;;;;;;;;;;;;;;;;;;5046058;28;19962;-82
2022/09/07 01:05:59;;;;;;;;;;;;;;;;;;5055124;28;20399;-82
2022/09/07 01:08:24;;;;;;;;;;;;;;;;;;5047826;28;19913;-82
2022/09/07 01:10:49;;;;;;;;;;;;;;;;;;5052213;28;19913;-82
2022/09/07 01:13:14;;;;;;;;;;;;;;;;;;5049576;28;19909;-82
2022/09/07 01:15:40;;;;;;;;;;;;;;;;;;5040738;28;19916;-81
2022/09/07 01:18:05;;;;;;;;;;;;;;;;;;5052835;28;19909;-82
2022/09/07 01:20:30;;;;;;;;;;;;;;;;;;5037401;28;19916;-82
2022/09/07 01:22:55;;;;;;;;;;;;;;;;;;5039686;28;19921;-82
2022/09/07 01:25:20;;;;;;;;;;;;;;;;;;5038700;28;20443;-82
2022/09/07 01:27:45;;;;;;;;;;;;;;;;;;5038684;28;19917;-83
2022/09/07 01:30:10;;;;;;;;;;;;;;;;;;5039204;28;19952;-82
2022/09/07 01:32:36;;;;;;;;;;;;;;;;;;5036763;28;19932;-81
2022/09/07 01:35:01;;;;;;;;;;;;;;;;;;5037344;28;19909;-82
2022/09/07 01:37:26;;;;;;;;;;;;;;;;;;5041290;28;19905;-82
2022/09/07 01:39:51;;;;;;;;;;;;;;;;;;5048649;28;19904;-82
2022/09/07 01:42:16;;;;;;;;;;;;;;;;;;5043532;28;19967;-82
2022/09/07 01:44:41;;;;;;;;;;;;;;;;;;5039953;28;20018;-82
2022/09/07 01:47:06;;;;;;;;;;;;;;;;;;5037063;28;19975;-80
2022/09/07 01:49:32;;;;;;;;;;;;;;;;;;5039088;28;20368;-80
2022/09/07 01:51:57;;;;;;;;;;;;;;;;;;5044013;28;19904;-80
2022/09/07 01:54:22;;;;;;;;;;;;;;;;;;5050598;28;19913;-81
2022/09/07 01:56:47;;;;;;;;;;;;;;;;;;5048900;28;20372;-81
2022/09/07 01:59:12;;;;;;;;;;;;;;;;;;5048725;28;19951;-80
2022/09/07 02:01:37;;;;;;;;;;;;;;;;;;5049814;28;19970;-81
2022/09/07 02:04:03;;;;;;;;;;;;;;;;;;5049671;28;19913;-81
2022/09/07 02:06:28;;;;;;;;;;;;;;;;;;5054067;28;19913;-81
2022/09/07 02:08:53;;;;;;;;;;;;;;;;;;5053200;28;19999;-81
2022/09/07 02:11:18;;;;;;;;;;;;;;;;;;5045006;28;19999;-81
2022/09/07 02:13:43;;;;;;;;;;;;;;;;;;5038900;28;19909;-81
2022/09/07 02:16:09;;;;;;;;;;;;;;;;;;5046701;28;19931;-81
2022/09/07 02:18:34;;;;;;;;;;;;;;;;;;5050007;28;19909;-80
2022/09/07 02:20:59;;;;;;;;;;;;;;;;;;5036374;28;19912;-82
2022/09/07 02:23:25;;;;;;;;;;;;;;;;;;5042953;28;19962;-81
2022/09/07 02:25:52;;;;;;;;;;;;;;;;;;5046824;28;19932;-81
2022/09/07 02:28:17;;;;;;;;;;;;;;;;;;5038760;28;20387;-81
2022/09/07 02:30:42;;;;;;;;;;;;;;;;;;5039686;28;20344;-81
2022/09/07 02:33:07;;;;;;;;;;;;;;;;;;5049382;28;20433;-81
2022/09/07 02:35:33;;;;;;;;;;;;;;;;;;5049001;28;19909;-81
2022/09/07 02:37:58;;;;;;;;;;;;;;;;;;5047166;28;20440;-80
2022/09/07 02:40:23;;;;;;;;;;;;;;;;;;5042114;28;20446;-81
2022/09/07 02:42:48;;;;;;;;;;;;;;;;;;5041537;28;19904;-81
2022/09/07 02:45:14;;;;;;;;;;;;;;;;;;5039071;28;20300;-81
2022/09/07 02:47:39;;;;;;;;;;;;;;;;;;5043057;28;20280;-80
2022/09/07 02:50:04;;;;;;;;;;;;;;;;;;5043664;28;19947;-81
2022/09/07 02:52:29;;;;;;;;;;;;;;;;;;5042407;28;19991;-81
2022/09/07 02:54:54;;;;;;;;;;;;;;;;;;5037816;28;19917;-81
2022/09/07 02:57:19;;;;;;;;;;;;;;;;;;5053581;28;19905;-81
2022/09/07 02:59:44;;;;;;;;;;;;;;;;;;5047487;28;19915;-80
2022/09/07 03:02:10;;;;;;;;;;;;;;;;;;5045152;28;19913;-81
2022/09/07 03:04:35;;;;;;;;;;;;;;;;;;5041952;28;20284;-81
2022/09/07 03:07:00;;;;;;;;;;;;;;;;;;5049906;28;19917;-80
2022/09/07 03:09:25;;;;;;;;;;;;;;;;;;5039674;28;19955;-81
2022/09/07 03:11:50;;;;;;;;;;;;;;;;;;5048506;28;19911;-80
2022/09/07 03:14:15;;;;;;;;;;;;;;;;;;5043596;28;19940;-80
2022/09/07 03:16:40;;;;;;;;;;;;;;;;;;5038699;28;19913;-80
2022/09/07 03:19:06;;;;;;;;;;;;;;;;;;5043507;28;19974;-81
2022/09/07 03:21:31;;;;;;;;;;;;;;;;;;5044082;28;20375;-81
2022/09/07 03:23:56;;;;;;;;;;;;;;;;;;5045902;28;19916;-81
2022/09/07 03:26:22;;;;;;;;;;;;;;;;;;5038851;28;19905;-80
2022/09/07 03:28:47;;;;;;;;;;;;;;;;;;5044834;28;20391;-80
2022/09/07 03:31:12;;;;;;;;;;;;;;;;;;5044156;28;19913;-81
2022/09/07 03:33:37;;;;;;;;;;;;;;;;;;5035036;28;19918;-80
2022/09/07 03:36:02;;;;;;;;;;;;;;;;;;5036556;28;19909;-80
2022/09/07 03:38:27;;;;;;;;;;;;;;;;;;5039027;28;19944;-80
2022/09/07 03:40:53;;;;;;;;;;;;;;;;;;5035048;28;20280;-80
2022/09/07 03:43:18;;;;;;;;;;;;;;;;;;5042832;28;19990;-80
2022/09/07 03:45:43;;;;;;;;;;;;;;;;;;5041192;28;19909;-80
2022/09/07 03:48:08;;;;;;;;;;;;;;;;;;5047278;28;19928;-81
2022/09/07 03:50:33;;;;;;;;;;;;;;;;;;5040033;28;19909;-81
2022/09/07 03:52:58;;;;;;;;;;;;;;;;;;5039976;28;19931;-80
2022/09/07 03:55:23;;;;;;;;;;;;;;;;;;5046783;28;19988;-81
2022/09/07 03:57:49;;;;;;;;;;;;;;;;;;5043797;28;19905;-80
2022/09/07 04:00:14;;;;;;;;;;;;;;;;;;5049363;28;19913;-80
2022/09/07 04:02:40;;;;;;;;;;;;;;;;;;5039629;28;19909;-80
2022/09/07 04:05:05;;;;;;;;;;;;;;;;;;5046750;28;20328;-80
2022/09/07 04:07:30;;;;;;;;;;;;;;;;;;5050273;28;20023;-80
2022/09/07 04:09:56;;;;;;;;;;;;;;;;;;5047138;28;19911;-81
2022/09/07 04:12:21;;;;;;;;;;;;;;;;;;5049669;28;19935;-80
2022/09/07 04:14:46;;;;;;;;;;;;;;;;;;5043188;28;19909;-80
2022/09/07 04:17:11;;;;;;;;;;;;;;;;;;5036631;28;19916;-80
2022/09/07 04:19:36;;;;;;;;;;;;;;;;;;5035749;28;19913;-80
2022/09/07 04:22:02;;;;;;;;;;;;;;;;;;5035806;28;19916;-80
2022/09/07 04:24:27;;;;;;;;;;;;;;;;;;5046784;28;19917;-80
2022/09/07 04:26:52;;;;;;;;;;;;;;;;;;5045195;28;19990;-80
2022/09/07 04:29:17;;;;;;;;;;;;;;;;;;5045768;28;19952;-80
2022/09/07 04:31:42;;;;;;;;;;;;;;;;;;5042933;28;19909;-80
2022/09/07 04:34:07;;;;;;;;;;;;;;;;;;5039263;28;20007;-80
2022/09/07 04:36:33;;;;;;;;;;;;;;;;;;5038224;28;19913;-80
2022/09/07 04:39:00;;;;;;;;;;;;;;;;;;5046910;28;19904;-80
2022/09/07 04:41:26;;;;;;;;;;;;;;;;;;5043972;28;20284;-80
2022/09/07 04:43:51;;;;;;;;;;;;;;;;;;5039140;28;19955;-80
2022/09/07 04:46:16;;;;;;;;;;;;;;;;;;5039950;28;19909;-80
2022/09/07 04:48:41;;;;;;;;;;;;;;;;;;5048028;28;19909;-80
2022/09/07 04:51:06;;;;;;;;;;;;;;;;;;5046193;28;19909;-80
2022/09/07 04:53:32;;;;;;;;;;;;;;;;;;5048431;28;19905;-80
2022/09/07 04:55:57;;;;;;;;;;;;;;;;;;5046077;28;19979;-80
2022/09/07 04:58:22;;;;;;;;;;;;;;;;;;5042038;28;19909;-81
2022/09/07 05:00:47;;;;;;;;;;;;;;;;;;5038616;28;19909;-80
2022/09/07 05:03:12;;;;;;;;;;;;;;;;;;5046905;28;20280;-80
2022/09/07 05:05:38;;;;;;;;;;;;;;;;;;5041233;28;19915;-80
2022/09/07 05:08:03;;;;;;;;;;;;;;;;;;5041868;28;19963;-80
2022/09/07 05:10:28;;;;;;;;;;;;;;;;;;5037912;28;20007;-80
2022/09/07 05:12:53;;;;;;;;;;;;;;;;;;5043427;28;19916;-80
2022/09/07 05:15:18;;;;;;;;;;;;;;;;;;5038708;28;20387;-80
2022/09/07 05:17:43;;;;;;;;;;;;;;;;;;5050352;28;19908;-81
2022/09/07 05:20:08;;;;;;;;;;;;;;;;;;5039830;28;19954;-80
2022/09/07 05:22:34;;;;;;;;;;;;;;;;;;5053965;28;19905;-80
2022/09/07 05:24:59;;;;;;;;;;;;;;;;;;5045232;28;19923;-80
2022/09/07 05:27:24;;;;;;;;;;;;;;;;;;5042952;28;19923;-80
2022/09/07 05:29:49;;;;;;;;;;;;;;;;;;5037363;28;19905;-80
2022/09/07 05:32:15;;;;;;;;;;;;;;;;;;5042573;28;19913;-80
2022/09/07 05:34:40;;;;;;;;;;;;;;;;;;5037493;28;19944;-80
2022/09/07 05:37:06;;;;;;;;;;;;;;;;;;5040208;28;19999;-80
2022/09/07 05:39:31;;;;;;;;;;;;;;;;;;5037342;28;20343;-80
2022/09/07 05:41:56;;;;;;;;;;;;;;;;;;5043198;28;20237;-80
2022/09/07 05:44:22;;;;;;;;;;;;;;;;;;5037624;28;20411;-80
2022/09/07 05:46:47;;;;;;;;;;;;;;;;;;5049419;28;19925;-80
2022/09/07 05:49:12;;;;;;;;;;;;;;;;;;5037297;28;19937;-80
2022/09/07 05:51:37;;;;;;;;;;;;;;;;;;5047900;28;19904;-80
2022/09/07 05:54:02;;;;;;;;;;;;;;;;;;5040201;28;19909;-80
2022/09/07 05:56:28;;;;;;;;;;;;;;;;;;5048732;28;19956;-80
2022/09/07 05:58:53;;;;;;;;;;;;;;;;;;5041397;28;20479;-81
2022/09/07 06:01:18;;;;;;;;;;;;;;;;;;5037009;28;19916;-80
2022/09/07 06:03:43;;;;;;;;;;;;;;;;;;5041984;28;19909;-80
2022/09/07 06:06:08;;;;;;;;;;;;;;;;;;5046805;28;20356;-81
2022/09/07 06:08:34;;;;;;;;;;;;;;;;;;5040548;28;20280;-81
2022/09/07 06:10:59;;;;;;;;;;;;;;;;;;5043080;28;20003;-81
2022/09/07 06:13:24;;;;;;;;;;;;;;;;;;5044093;28;19996;-81
2022/09/07 06:15:49;;;;;;;;;;;;;;;;;;5041058;28;19912;-81
2022/09/07 06:18:14;;;;;;;;;;;;;;;;;;5042817;28;20253;-81
2022/09/07 06:20:39;;;;;;;;;;;;;;;;;;5036374;28;19935;-81
2022/09/07 06:23:06;;;;;;;;;;;;;;;;;;5039850;28;19944;-80
2022/09/07 06:25:31;;;;;;;;;;;;;;;;;;5053616;28;19947;-75
2022/09/07 06:27:56;;;;;;;;;;;;;;;;;;5042000;28;20400;-77
2022/09/07 06:30:21;;;;;;;;;;;;;;;;;;5038475;28;19963;-77
2022/09/07 06:32:46;;;;;;;;;;;;;;;;;;5050949;28;19909;-76
2022/09/07 06:35:12;;;;;;;;;;;;;;;;;;5033999;28;19909;-76
2022/09/07 06:37:37;;;;;;;;;;;;;;;;;;5046944;28;20261;-76
2022/09/07 06:40:02;;;;;;;;;;;;;;;;;;5050346;28;19923;-76
2022/09/07 06:42:27;;;;;;;;;;;;;;;;;;5041387;28;19912;-76
2022/09/07 06:44:52;;;;;;;;;;;;;;;;;;5037030;28;19911;-76
2022/09/07 06:47:18;;;;;;;;;;;;;;;;;;5041864;28;19924;-76
2022/09/07 06:49:43;;;;;;;;;;;;;;;;;;5042749;28;19951;-77
2022/09/07 06:52:08;;;;;;;;;;;;;;;;;;5044920;28;19905;-77
2022/09/07 06:54:33;;;;;;;;;;;;;;;;;;5039845;28;19916;-77
2022/09/07 06:56:58;;;;;;;;;;;;;;;;;;5049239;28;19953;-77
2022/09/07 06:59:23;;;;;;;;;;;;;;;;;;5044118;28;20265;-77
2022/09/07 07:01:48;;;;;;;;;;;;;;;;;;5046082;28;19939;-77
2022/09/07 07:04:14;;;;;;;;;;;;;;;;;;5039882;28;19909;-76
2022/09/07 07:06:39;;;;;;;;;;;;;;;;;;5046043;28;20327;-77
2022/09/07 07:09:04;;;;;;;;;;;;;;;;;;5036997;28;20033;-77
2022/09/07 07:11:32;;;;;;;;;;;;;;;;;;5039023;28;19904;-77
2022/09/07 07:13:58;;;;;;;;;;;;;;;;;;5048321;28;19905;-77
2022/09/07 07:16:23;;;;;;;;;;;;;;;;;;5042173;28;19909;-77
2022/09/07 07:18:51;;;;;;;;;;;;;;;;;;5034443;28;19912;-78
2022/09/07 07:21:16;;;;;;;;;;;;;;;;;;5052722;28;19905;-78
2022/09/07 07:23:41;;;;;;;;;;;;;;;;;;5049861;28;19915;-79
2022/09/07 07:26:06;;;;;;;;;;;;;;;;;;5047405;28;19995;-79
2022/09/07 07:28:32;;;;;;;;;;;;;;;;;;5034880;28;19925;-80
2022/09/07 07:30:58;;;;;;;;;;;;;;;;;;5052252;28;19939;-80
2022/09/07 07:33:23;;;;;;;;;;;;;;;;;;5044557;28;19909;-81
2022/09/07 07:35:48;;;;;;;;;;;;;;;;;;5044563;28;19905;-81
2022/09/07 07:38:13;;;;;;;;;;;;;;;;;;5030766;28;19909;-81
2022/09/07 07:40:38;;;;;;;;;;;;;;;;;;5029124;28;19948;-78
2022/09/07 07:43:03;;;;;;;;;;;;;;;;;;5035535;28;19917;-78
2022/09/07 07:45:28;;;;;;;;;;;;;;;;;;5039906;28;19915;-78
2022/09/07 07:47:54;;;;;;;;;;;;;;;;;;5046708;28;19920;-78
2022/09/07 07:50:19;;;;;;;;;;;;;;;;;;5046113;28;19997;-78
2022/09/07 07:52:44;;;;;;;;;;;;;;;;;;5040271;28;19909;-78
2022/09/07 07:55:09;;;;;;;;;;;;;;;;;;5046167;28;19950;-78
2022/09/07 07:57:34;;;;;;;;;;;;;;;;;;5037723;28;19913;-78
2022/09/07 07:59:59;;;;;;;;;;;;;;;;;;5040130;28;19917;-78
2022/09/07 08:02:25;;;;;;;;;;;;;;;;;;5041779;28;19956;-78
2022/09/07 08:04:50;;;;;;;;;;;;;;;;;;5034847;28;19917;-78
2022/09/07 08:07:15;;;;;;;;;;;;;;;;;;5038961;28;19917;-79
2022/09/07 08:09:40;;;;;;;;;;;;;;;;;;5040285;28;20386;-78
2022/09/07 08:12:05;;;;;;;;;;;;;;;;;;5041657;28;19908;-77
2022/09/07 08:14:30;;;;;;;;;;;;;;;;;;5047049;28;20367;-78
2022/09/07 08:16:56;;;;;;;;;;;;;;;;;;5038555;28;19913;-78
2022/09/07 08:19:21;;;;;;;;;;;;;;;;;;5040346;28;19920;-78
2022/09/07 08:21:46;;;;;;;;;;;;;;;;;;5035907;28;20239;-78
2022/09/07 08:24:11;;;;;;;;;;;;;;;;;;5025435;28;19925;-80
2022/09/07 08:26:36;;;;;;;;;;;;;;;;;;5034294;28;19924;-78
2022/09/07 08:29:01;;;;;;;;;;;;;;;;;;5033061;28;19959;-79
2022/09/07 08:31:27;;;;;;;;;;;;;;;;;;5045119;28;19944;-78
2022/09/07 08:33:52;;;;;;;;;;;;;;;;;;5034915;28;20264;-79
2022/09/07 08:36:17;;;;;;;;;;;;;;;;;;5038643;28;20372;-79
2022/09/07 08:38:42;;;;;;;;;;;;;;;;;;5037455;28;19917;-78
2022/09/07 08:41:07;;;;;;;;;;;;;;;;;;5033750;28;19943;-78
2022/09/07 08:43:32;;;;;;;;;;;;;;;;;;5039210;28;19909;-78
2022/09/07 08:45:59;;;;;;;;;;;;;;;;;;5039949;28;19932;-79
2022/09/07 08:48:24;;;;;;;;;;;;;;;;;;5033423;28;20361;-78
2022/09/07 08:50:50;;;;;;;;;;;;;;;;;;5037301;28;19924;-79
2022/09/07 08:53:15;;;;;;;;;;;;;;;;;;5033995;28;20418;-79
2022/09/07 08:55:40;;;;;;;;;;;;;;;;;;5042912;28;20296;-78
2022/09/07 08:58:06;;;;;;;;;;;;;;;;;;5033927;28;19909;-79
2022/09/07 09:00:31;;;;;;;;;;;;;;;;;;5037240;28;20356;-80
2022/09/07 09:02:57;;;;;;;;;;;;;;;;;;5033027;28;19909;-80
2022/09/07 09:05:22;;;;;;;;;;;;;;;;;;5034770;28;20801;-78
2022/09/07 09:07:47;;;;;;;;;;;;;;;;;;5032927;28;20004;-79
2022/09/07 09:10:12;;;;;;;;;;;;;;;;;;5039620;28;19955;-78
2022/09/07 09:12:39;;;;;;;;;;;;;;;;;;5032606;28;19909;-79
2022/09/07 09:15:04;;;;;;;;;;;;;;;;;;5037654;28;19913;-78
2022/09/07 09:17:29;;;;;;;;;;;;;;;;;;5040717;28;19919;-78
2022/09/07 09:19:54;;;;;;;;;;;;;;;;;;5039000;28;19944;-79
2022/09/07 09:22:19;;;;;;;;;;;;;;;;;;5045403;28;19905;-79
2022/09/07 09:24:44;;;;;;;;;;;;;;;;;;5041620;28;19923;-79
2022/09/07 09:27:10;;;;;;;;;;;;;;;;;;5039705;28;19917;-80
2022/09/07 09:29:35;;;;;;;;;;;;;;;;;;5049627;28;19916;-79
2022/09/07 09:32:00;;;;;;;;;;;;;;;;;;5047148;28;19905;-79
2022/09/07 09:34:25;;;;;;;;;;;;;;;;;;5042838;28;20082;-79
2022/09/07 09:36:50;;;;;;;;;;;;;;;;;;5036955;28;19912;-80
2022/09/07 09:39:15;;;;;;;;;;;;;;;;;;5043734;28;19946;-78
2022/09/07 09:41:40;;;;;;;;;;;;;;;;;;5050765;28;19932;-79
2022/09/07 09:44:05;;;;;;;;;;;;;;;;;;5052153;28;19916;-79
2022/09/07 09:46:31;;;;;;;;;;;;;;;;;;5037681;28;19916;-79
2022/09/07 09:48:56;;;;;;;;;;;;;;;;;;5037900;28;19915;-79
2022/09/07 09:51:21;;;;;;;;;;;;;;;;;;5047172;28;20388;-80
2022/09/07 09:53:46;;;;;;;;;;;;;;;;;;5047493;28;19916;-79
2022/09/07 09:56:11;;;;;;;;;;;;;;;;;;5046600;28;19909;-80
2022/09/07 09:58:36;;;;;;;;;;;;;;;;;;5053242;28;19951;-79
2022/09/07 10:01:02;;;;;;;;;;;;;;;;;;5048980;28;19916;-79
2022/09/07 10:03:27;;;;;;;;;;;;;;;;;;5054267;28;19909;-80
2022/09/07 10:05:53;;;;;;;;;;;;;;;;;;5041869;28;19905;-80
2022/09/07 10:08:18;;;;;;;;;;;;;;;;;;5041702;28;19917;-80
2022/09/07 10:10:43;;;;;;;;;;;;;;;;;;5043110;28;20279;-80
2022/09/07 10:13:08;;;;;;;;;;;;;;;;;;5049175;28;19917;-79
2022/09/07 10:15:37;;;;;;;;;;;;;;;;;;5041338;28;19909;-80
2022/09/07 10:18:03;;;;;;;;;;;;;;;;;;5045350;28;20450;-79
2022/09/07 10:20:28;;;;;;;;;;;;;;;;;;5051792;28;19912;-79
2022/09/07 10:22:53;;;;;;;;;;;;;;;;;;5048727;28;19908;-80
2022/09/07 10:25:18;;;;;;;;;;;;;;;;;;5045513;28;19916;-81
2022/09/07 10:27:45;;;;;;;;;;;;;;;;;;5047040;28;19921;-81
2022/09/07 10:30:10;;;;;;;;;;;;;;;;;;5048834;28;19962;-81
2022/09/07 10:32:35;;;;;;;;;;;;;;;;;;5044713;28;19916;-80
2022/09/07 10:35:01;;;;;;;;;;;;;;;;;;5047968;28;19991;-81
2022/09/07 10:37:26;;;;;;;;;;;;;;;;;;5045258;28;20333;-80
2022/09/07 10:39:51;;;;;;;;;;;;;;;;;;5043948;28;20372;-80
2022/09/07 10:42:16;;;;;;;;;;;;;;;;;;5039456;28;19952;-81
2022/09/07 10:44:41;;;;;;;;;;;;;;;;;;5049673;28;19948;-81
2022/09/07 10:47:07;;;;;;;;;;;;;;;;;;5033862;28;19917;-81
2022/09/07 10:49:32;;;;;;;;;;;;;;;;;;5047780;28;19913;-81
2022/09/07 10:51:57;;;;;;;;;;;;;;;;;;5040661;28;19909;-81
2022/09/07 10:54:22;;;;;;;;;;;;;;;;;;5037607;28;19916;-80
2022/09/07 10:56:47;;;;;;;;;;;;;;;;;;5038618;28;19908;-80
2022/09/07 10:59:13;;;;;;;;;;;;;;;;;;5042719;28;19917;-80
2022/09/07 11:01:38;;;;;;;;;;;;;;;;;;5042971;28;20276;-80
2022/09/07 11:04:03;;;;;;;;;;;;;;;;;;5041177;28;19995;-80
2022/09/07 11:06:28;;;;;;;;;;;;;;;;;;5041286;28;19912;-80
2022/09/07 11:08:53;;;;;;;;;;;;;;;;;;5047161;28;19915;-81
2022/09/07 11:11:18;;;;;;;;;;;;;;;;;;5039148;28;19908;-81
2022/09/07 11:13:44;;;;;;;;;;;;;;;;;;5043365;28;19912;-80
2022/09/07 11:16:09;;;;;;;;;;;;;;;;;;5040302;28;19909;-81
2022/09/07 11:18:34;;;;;;;;;;;;;;;;;;5047890;28;19927;-80
2022/09/07 11:20:59;;;;;;;;;;;;;;;;;;5042597;28;19991;-81
2022/09/07 11:23:25;;;;;;;;;;;;;;;;;;5032216;28;19988;-80
2022/09/07 11:25:50;;;;;;;;;;;;;;;;;;5038846;28;19917;-80
2022/09/07 11:28:15;;;;;;;;;;;;;;;;;;5027120;28;20313;-82
2022/09/07 11:30:40;;;;;;;;;;;;;;;;;;5036198;28;20401;-82
2022/09/07 11:33:05;;;;;;;;;;;;;;;;;;5037302;28;19988;-81
2022/09/07 11:35:30;;;;;;;;;;;;;;;;;;5035199;28;19905;-81
2022/09/07 11:37:58;;;;;;;;;;;;;;;;;;5033410;28;19999;-81
2022/09/07 11:40:23;;;;;;;;;;;;;;;;;;5033880;28;19905;-81
2022/09/07 11:42:48;;;;;;;;;;;;;;;;;;5043472;28;19912;-82
2022/09/07 11:45:13;;;;;;;;;;;;;;;;;;5035739;28;19916;-81
2022/09/07 11:47:39;;;;;;;;;;;;;;;;;;5039894;28;19920;-81
2022/09/07 11:50:04;;;;;;;;;;;;;;;;;;5038050;28;19912;-82
2022/09/07 11:52:29;;;;;;;;;;;;;;;;;;5031667;28;19994;-82
2022/09/07 11:54:54;;;;;;;;;;;;;;;;;;5030612;28;20773;-82
2022/09/07 11:57:19;;;;;;;;;;;;;;;;;;5040969;28;19905;-82
2022/09/07 11:59:44;;;;;;;;;;;;;;;;;;5037094;28;19944;-82
2022/09/07 12:02:09;;;;;;;;;;;;;;;;;;5042017;28;20302;-83
2022/09/07 12:04:35;;;;;;;;;;;;;;;;;;5037156;28;19916;-81
2022/09/07 12:07:00;;;;;;;;;;;;;;;;;;5033851;28;19917;-81
2022/09/07 12:09:25;;;;;;;;;;;;;;;;;;5042041;28;19916;-82
2022/09/07 12:11:50;;;;;;;;;;;;;;;;;;5036367;28;19917;-82
2022/09/07 12:14:16;;;;;;;;;;;;;;;;;;5039198;28;19966;-81
2022/09/07 12:16:41;;;;;;;;;;;;;;;;;;5036528;28;19909;-82
2022/09/07 12:19:06;;;;;;;;;;;;;;;;;;5042409;28;19905;-83
2022/09/07 12:21:31;;;;;;;;;;;;;;;;;;5044387;28;19955;-83
2022/09/07 12:23:56;;;;;;;;;;;;;;;;;;5041660;28;19952;-86
2022/09/07 12:26:21;;;;;;;;;;;;;;;;;;5041397;28;19958;-84
2022/09/07 12:28:46;;;;;;;;;;;;;;;;;;5035689;28;20014;-84
2022/09/07 12:31:12;;;;;;;;;;;;;;;;;;5044825;28;19908;-84
2022/09/07 12:33:37;;;;;;;;;;;;;;;;;;5039891;28;20276;-85
2022/09/07 12:36:02;;;;;;;;;;;;;;;;;;5031362;28;19923;-86
2022/09/07 12:38:27;;;;;;;;;;;;;;;;;;5043494;28;19944;-86
2022/09/07 12:40:52;;;;;;;;;;;;;;;;;;5038866;28;19913;-86
2022/09/07 12:43:17;;;;;;;;;;;;;;;;;;5043921;28;19913;-86
2022/09/07 12:45:42;;;;;;;;;;;;;;;;;;5045461;28;20075;-85
2022/09/07 12:48:08;;;;;;;;;;;;;;;;;;5049907;28;19924;-85
2022/09/07 12:50:33;;;;;;;;;;;;;;;;;;5041239;28;19916;-84
2022/09/07 12:52:58;;;;;;;;;;;;;;;;;;5038115;28;20276;-86
2022/09/07 12:55:23;;;;;;;;;;;;;;;;;;5044276;28;19913;-86
2022/09/07 12:57:48;;;;;;;;;;;;;;;;;;5035935;28;20295;-80
2022/09/07 13:00:13;;;;;;;;;;;;;;;;;;5043604;28;19961;-80
2022/09/07 13:02:38;;;;;;;;;;;;;;;;;;5039384;28;20000;-80
2022/09/07 13:05:03;;;;;;;;;;;;;;;;;;5044840;28;19915;-79
2022/09/07 13:07:28;;;;;;;;;;;;;;;;;;5051606;28;19957;-79
2022/09/07 13:09:55;;;;;;;;;;;;;;;;;;5038959;28;19916;-80
2022/09/07 13:12:20;;;;;;;;;;;;;;;;;;5038638;28;19913;-80
2022/09/07 13:14:45;;;;;;;;;;;;;;;;;;5021593;28;19909;-80
2022/09/07 13:17:11;;;;;;;;;;;;;;;;;;5034365;28;19924;-79
2022/09/07 13:19:36;;;;;;;;;;;;;;;;;;5034879;28;20323;-79
2022/09/07 13:22:01;;;;;;;;;;;;;;;;;;5042637;28;19908;-79
2022/09/07 13:24:26;;;;;;;;;;;;;;;;;;5037245;28;19924;-79
2022/09/07 13:26:52;;;;;;;;;;;;;;;;;;5034183;28;19956;-79
2022/09/07 13:29:17;;;;;;;;;;;;;;;;;;5039477;28;19956;-80
2022/09/07 13:31:42;;;;;;;;;;;;;;;;;;5040713;28;20361;-79
2022/09/07 13:34:07;;;;;;;;;;;;;;;;;;5040668;28;19997;-80
2022/09/07 13:36:33;;;;;;;;;;;;;;;;;;5038025;28;20272;-79
2022/09/07 13:38:58;;;;;;;;;;;;;;;;;;5035260;28;19951;-79
2022/09/07 13:41:24;;;;;;;;;;;;;;;;;;5041954;28;19915;-79
2022/09/07 13:43:50;;;;;;;;;;;;;;;;;;5037427;28;19950;-79
2022/09/07 13:46:15;;;;;;;;;;;;;;;;;;5033501;28;19908;-80
2022/09/07 13:48:40;;;;;;;;;;;;;;;;;;5037785;28;19971;-80
2022/09/07 13:51:07;;;;;;;;;;;;;;;;;;5035740;28;19905;-79
2022/09/07 13:53:32;;;;;;;;;;;;;;;;;;5035699;28;20395;-80
2022/09/07 13:55:57;;;;;;;;;;;;;;;;;;5037213;28;19909;-80
2022/09/07 13:58:22;;;;;;;;;;;;;;;;;;5036898;28;19905;-80
2022/09/07 14:00:48;;;;;;;;;;;;;;;;;;5032305;28;19912;-79
2022/09/07 14:03:13;;;;;;;;;;;;;;;;;;5036510;28;19909;-80
2022/09/07 14:05:39;;;;;;;;;;;;;;;;;;5033208;28;19905;-80
2022/09/07 14:08:04;;;;;;;;;;;;;;;;;;5037676;28;20265;-80
2022/09/07 14:10:29;;;;;;;;;;;;;;;;;;5032308;28;19995;-80
2022/09/07 14:12:54;;;;;;;;;;;;;;;;;;5045445;28;19931;-80
2022/09/07 14:15:20;;;;;;;;;;;;;;;;;;5044236;28;19909;-80
2022/09/07 14:17:45;;;;;;;;;;;;;;;;;;5033828;28;19916;-80
2022/09/07 14:20:10;;;;;;;;;;;;;;;;;;5035211;28;19940;-80
2022/09/07 14:22:36;;;;;;;;;;;;;;;;;;5045616;28;20022;-80
2022/09/07 14:25:01;;;;;;;;;;;;;;;;;;5025198;28;19982;-80
2022/09/07 14:27:27;;;;;;;;;;;;;;;;;;5033762;28;19913;-81
2022/09/07 14:29:52;;;;;;;;;;;;;;;;;;5042403;28;20368;-80
2022/09/07 14:32:17;;;;;;;;;;;;;;;;;;5039330;28;19909;-80
2022/09/07 14:34:43;;;;;;;;;;;;;;;;;;5035389;28;20372;-80
2022/09/07 14:37:08;;;;;;;;;;;;;;;;;;5036505;28;20006;-80
2022/09/07 14:39:34;;;;;;;;;;;;;;;;;;5033045;28;19979;-80
2022/09/07 14:41:59;;;;;;;;;;;;;;;;;;5036996;28;19935;-80
2022/09/07 14:44:24;;;;;;;;;;;;;;;;;;5036388;28;20341;-81
2022/09/07 14:46:49;;;;;;;;;;;;;;;;;;5030370;28;19909;-80
2022/09/07 14:49:14;;;;;;;;;;;;;;;;;;5038380;28;19999;-80
2022/09/07 14:51:39;;;;;;;;;;;;;;;;;;5031953;28;19936;-80
2022/09/07 14:54:04;;;;;;;;;;;;;;;;;;5031972;28;19958;-80
2022/09/07 14:56:30;;;;;;;;;;;;;;;;;;5036500;28;19909;-80
2022/09/07 14:58:55;;;;;;;;;;;;;;;;;;5038720;28;20337;-81
2022/09/07 15:01:21;;;;;;;;;;;;;;;;;;5035926;28;19955;-81
2022/09/07 15:03:46;;;;;;;;;;;;;;;;;;5040462;28;19908;-80
2022/09/07 15:06:11;;;;;;;;;;;;;;;;;;5042246;28;19909;-80
2022/09/07 15:08:36;;;;;;;;;;;;;;;;;;5043630;28;20099;-80
2022/09/07 15:11:01;;;;;;;;;;;;;;;;;;5048266;28;19913;-80
2022/09/07 15:13:27;;;;;;;;;;;;;;;;;;5047189;28;19999;-80
2022/09/07 15:15:52;;;;;;;;;;;;;;;;;;5051102;28;19909;-80
2022/09/07 15:18:17;;;;;;;;;;;;;;;;;;5039906;28;19909;-80
2022/09/07 15:20:43;;;;;;;;;;;;;;;;;;5043479;28;19904;-81
2022/09/07 15:23:08;;;;;;;;;;;;;;;;;;5036550;28;19913;-81
2022/09/07 15:25:33;;;;;;;;;;;;;;;;;;5045820;28;19975;-80
2022/09/07 15:27:58;;;;;;;;;;;;;;;;;;5048359;28;20348;-80
2022/09/07 15:30:24;;;;;;;;;;;;;;;;;;5042553;28;20371;-80
2022/09/07 15:32:50;;;;;;;;;;;;;;;;;;5036631;28;19959;-81
